createdAt,value
2019-03-22T00:00:35.917Z,10.07
2019-03-22T00:01:35.940Z,10.07
2019-03-22T00:02:35.966Z,10.10
2019-03-22T00:03:35.991Z,10.07
2019-03-22T00:04:36.020Z,10.02
2019-03-22T00:05:36.044Z,9.95
2019-03-22T00:06:36.068Z,9.96
2019-03-22T00:07:36.102Z,9.95
2019-03-22T00:08:36.127Z,9.96
2019-03-22T00:09:36.150Z,9.96
2019-03-22T00:10:36.173Z,9.93
2019-03-22T00:11:36.203Z,9.95
2019-03-22T00:12:36.223Z,9.93
2019-03-22T00:13:36.250Z,9.95
2019-03-22T00:14:37.117Z,9.88
2019-03-22T00:15:36.307Z,9.90
2019-03-22T00:16:36.326Z,9.98
2019-03-22T00:17:36.355Z,9.88
2019-03-22T00:18:36.443Z,9.85
2019-03-22T00:19:36.541Z,9.90
2019-03-22T00:20:36.427Z,9.96
2019-03-22T00:21:36.455Z,9.84
2019-03-22T00:22:36.481Z,9.80
2019-03-22T00:23:36.504Z,9.95
2019-03-22T00:24:36.533Z,9.85
2019-03-22T00:25:36.554Z,9.98
2019-03-22T00:26:36.581Z,9.89
2019-03-22T00:27:36.613Z,9.93
2019-03-22T00:28:36.640Z,9.88
2019-03-22T00:29:36.660Z,9.96
2019-03-22T00:30:36.684Z,9.85
2019-03-22T00:31:36.711Z,9.88
2019-03-22T00:32:36.737Z,9.85
2019-03-22T00:33:36.762Z,9.90
2019-03-22T00:34:36.785Z,9.84
2019-03-22T00:35:36.810Z,9.84
2019-03-22T00:36:36.836Z,9.93
2019-03-22T00:37:36.862Z,9.84
2019-03-22T00:38:36.887Z,9.85
2019-03-22T00:39:36.916Z,9.90
2019-03-22T00:40:36.939Z,9.85
2019-03-22T00:41:36.967Z,9.84
2019-03-22T00:42:36.991Z,9.85
2019-03-22T00:43:37.022Z,9.88
2019-03-22T00:44:37.098Z,9.85
2019-03-22T00:45:37.068Z,9.90
2019-03-22T00:46:37.096Z,9.89
2019-03-22T00:47:37.126Z,9.84
2019-03-22T00:48:37.149Z,9.80
2019-03-22T00:49:37.176Z,9.84
2019-03-22T00:50:37.204Z,9.84
2019-03-22T00:51:37.222Z,9.81
2019-03-22T00:52:37.249Z,9.89
2019-03-22T00:53:37.275Z,9.82
2019-03-22T00:54:37.300Z,9.75
2019-03-22T00:55:37.326Z,9.81
2019-03-22T00:56:37.353Z,9.82
2019-03-22T00:57:37.378Z,9.88
2019-03-22T00:58:37.403Z,9.82
2019-03-22T00:59:37.426Z,9.82
2019-03-22T01:00:37.451Z,9.67
2019-03-22T01:01:37.479Z,9.72
2019-03-22T01:02:37.509Z,9.71
2019-03-22T01:03:37.534Z,9.72
2019-03-22T01:04:37.572Z,9.71
2019-03-22T01:05:37.586Z,9.74
2019-03-22T01:06:37.606Z,9.77
2019-03-22T01:07:37.634Z,9.72
2019-03-22T01:08:37.658Z,9.70
2019-03-22T01:09:37.684Z,9.71
2019-03-22T01:10:37.708Z,9.71
2019-03-22T01:11:37.736Z,9.67
2019-03-22T01:12:37.757Z,9.78
2019-03-22T01:13:37.786Z,9.74
2019-03-22T01:14:37.809Z,9.77
2019-03-22T01:15:37.837Z,9.66
2019-03-22T01:16:37.863Z,9.74
2019-03-22T01:17:37.893Z,9.72
2019-03-22T01:18:37.913Z,9.72
2019-03-22T01:19:37.942Z,9.72
2019-03-22T01:20:37.969Z,9.74
2019-03-22T01:21:37.992Z,9.74
2019-03-22T01:22:38.080Z,9.70
2019-03-22T01:23:38.042Z,9.78
2019-03-22T01:24:38.072Z,9.81
2019-03-22T01:25:38.095Z,9.67
2019-03-22T01:26:38.118Z,9.77
2019-03-22T01:27:40.742Z,9.74
2019-03-22T01:28:38.171Z,9.72
2019-03-22T01:29:38.197Z,9.78
2019-03-22T01:30:38.233Z,9.75
2019-03-22T01:31:38.247Z,9.72
2019-03-22T01:32:38.274Z,9.75
2019-03-22T01:33:38.309Z,9.72
2019-03-22T01:34:38.327Z,9.71
2019-03-22T01:35:38.358Z,9.71
2019-03-22T01:36:38.379Z,9.74
2019-03-22T01:37:38.399Z,9.70
2019-03-22T01:38:38.429Z,9.70
2019-03-22T01:39:38.456Z,9.67
2019-03-22T01:40:38.477Z,9.74
2019-03-22T01:41:38.512Z,9.75
2019-03-22T01:42:38.532Z,9.71
2019-03-22T01:43:38.567Z,9.75
2019-03-22T01:44:38.582Z,9.70
2019-03-22T01:45:38.615Z,9.71
2019-03-22T01:46:38.634Z,9.71
2019-03-22T01:47:38.665Z,9.85
2019-03-22T01:48:38.682Z,9.75
2019-03-22T01:49:38.708Z,9.75
2019-03-22T01:50:38.737Z,9.82
2019-03-22T01:51:38.761Z,9.75
2019-03-22T01:52:38.794Z,9.80
2019-03-22T01:53:38.819Z,9.81
2019-03-22T01:54:38.843Z,9.84
2019-03-22T01:55:38.869Z,9.88
2019-03-22T01:56:38.891Z,9.75
2019-03-22T01:57:38.915Z,9.89
2019-03-22T01:58:38.949Z,9.82
2019-03-22T01:59:38.975Z,9.84
2019-03-22T02:00:38.998Z,9.80
2019-03-22T02:01:39.020Z,9.84
2019-03-22T02:02:39.046Z,9.85
2019-03-22T02:03:39.072Z,9.77
2019-03-22T02:04:39.094Z,9.84
2019-03-22T02:05:39.122Z,9.84
2019-03-22T02:06:39.145Z,9.81
2019-03-22T02:07:39.177Z,9.74
2019-03-22T02:08:39.199Z,9.72
2019-03-22T02:09:39.223Z,9.71
2019-03-22T02:10:39.249Z,9.74
2019-03-22T02:11:39.274Z,9.70
2019-03-22T02:12:39.299Z,9.66
2019-03-22T02:13:39.324Z,9.81
2019-03-22T02:14:39.354Z,9.84
2019-03-22T02:15:39.379Z,9.75
2019-03-22T02:16:39.410Z,9.77
2019-03-22T02:17:39.427Z,9.75
2019-03-22T02:18:39.453Z,9.75
2019-03-22T02:19:39.481Z,9.67
2019-03-22T02:20:39.507Z,9.74
2019-03-22T02:21:39.532Z,9.71
2019-03-22T02:22:39.563Z,9.74
2019-03-22T02:23:39.581Z,9.72
2019-03-22T02:24:39.606Z,9.72
2019-03-22T02:25:39.634Z,9.72
2019-03-22T02:26:39.660Z,9.67
2019-03-22T02:27:39.682Z,9.72
2019-03-22T02:28:39.709Z,9.72
2019-03-22T02:29:39.736Z,9.75
2019-03-22T02:30:39.763Z,9.75
2019-03-22T02:31:39.791Z,9.72
2019-03-22T02:32:39.815Z,9.71
2019-03-22T02:33:39.838Z,9.66
2019-03-22T02:34:39.864Z,9.75
2019-03-22T02:35:39.893Z,9.63
2019-03-22T02:36:39.914Z,9.74
2019-03-22T02:37:39.941Z,9.63
2019-03-22T02:38:39.969Z,9.62
2019-03-22T02:39:40.168Z,9.62
2019-03-22T02:40:40.016Z,9.63
2019-03-22T02:41:40.047Z,9.67
2019-03-22T02:42:40.070Z,9.62
2019-03-22T02:43:40.103Z,9.66
2019-03-22T02:44:40.117Z,9.63
2019-03-22T02:45:40.146Z,9.64
2019-03-22T02:46:40.170Z,9.56
2019-03-22T02:47:40.196Z,9.57
2019-03-22T02:48:40.218Z,9.60
2019-03-22T02:49:40.248Z,9.52
2019-03-22T02:50:40.271Z,9.56
2019-03-22T02:51:40.296Z,9.60
2019-03-22T02:52:40.326Z,9.53
2019-03-22T02:53:40.349Z,9.60
2019-03-22T02:54:40.379Z,9.62
2019-03-22T02:55:40.424Z,9.59
2019-03-22T02:56:40.424Z,9.60
2019-03-22T02:57:40.447Z,9.53
2019-03-22T02:58:40.473Z,9.50
2019-03-22T02:59:40.497Z,9.44
2019-03-22T03:00:40.526Z,9.44
2019-03-22T03:01:40.555Z,9.50
2019-03-22T03:02:40.578Z,9.48
2019-03-22T03:03:40.602Z,9.53
2019-03-22T03:04:40.629Z,9.52
2019-03-22T03:05:40.657Z,9.50
2019-03-22T03:06:40.688Z,9.47
2019-03-22T03:07:40.707Z,9.50
2019-03-22T03:08:40.727Z,9.50
2019-03-22T03:09:40.756Z,9.53
2019-03-22T03:10:40.782Z,9.47
2019-03-22T03:11:40.803Z,9.50
2019-03-22T03:12:40.830Z,9.53
2019-03-22T03:13:40.864Z,9.53
2019-03-22T03:14:40.878Z,9.50
2019-03-22T03:15:40.911Z,9.45
2019-03-22T03:16:40.937Z,9.39
2019-03-22T03:17:40.954Z,9.37
2019-03-22T03:18:40.981Z,9.37
2019-03-22T03:19:41.011Z,9.41
2019-03-22T03:20:41.032Z,9.42
2019-03-22T03:21:41.055Z,9.32
2019-03-22T03:22:41.083Z,9.30
2019-03-22T03:23:41.108Z,9.32
2019-03-22T03:24:41.132Z,9.38
2019-03-22T03:25:41.160Z,9.39
2019-03-22T03:26:41.193Z,9.32
2019-03-22T03:27:41.339Z,9.37
2019-03-22T03:28:41.236Z,9.37
2019-03-22T03:29:41.264Z,9.32
2019-03-22T03:30:41.285Z,9.35
2019-03-22T03:31:41.311Z,9.42
2019-03-22T03:32:41.338Z,9.30
2019-03-22T03:33:41.372Z,9.34
2019-03-22T03:34:41.408Z,9.27
2019-03-22T03:35:41.414Z,9.35
2019-03-22T03:36:41.439Z,9.32
2019-03-22T03:37:41.465Z,9.30
2019-03-22T03:38:41.490Z,9.23
2019-03-22T03:39:41.520Z,9.19
2019-03-22T03:40:41.545Z,9.23
2019-03-22T03:41:41.566Z,9.27
2019-03-22T03:42:41.592Z,9.26
2019-03-22T03:43:41.621Z,9.19
2019-03-22T03:44:41.642Z,9.21
2019-03-22T03:45:41.665Z,9.24
2019-03-22T03:46:41.693Z,9.21
2019-03-22T03:47:41.718Z,9.20
2019-03-22T03:48:41.752Z,9.21
2019-03-22T03:49:41.769Z,9.26
2019-03-22T03:50:41.798Z,9.26
2019-03-22T03:51:41.825Z,9.14
2019-03-22T03:52:41.851Z,9.16
2019-03-22T03:53:41.870Z,9.20
2019-03-22T03:54:41.895Z,9.11
2019-03-22T03:55:41.921Z,9.09
2019-03-22T03:56:41.950Z,9.11
2019-03-22T03:57:41.976Z,9.08
2019-03-22T03:58:52.365Z,9.03
2019-03-22T03:59:42.020Z,9.04
2019-03-22T04:00:42.046Z,9.03
2019-03-22T04:01:42.073Z,8.98
2019-03-22T04:02:42.097Z,9.03
2019-03-22T04:03:42.123Z,8.94
2019-03-22T04:04:42.148Z,8.94
2019-03-22T04:05:42.172Z,9.00
2019-03-22T04:06:42.198Z,9.03
2019-03-22T04:07:42.230Z,8.98
2019-03-22T04:08:42.246Z,8.95
2019-03-22T04:09:42.273Z,8.97
2019-03-22T04:10:42.298Z,8.92
2019-03-22T04:11:42.333Z,8.94
2019-03-22T04:12:42.349Z,8.95
2019-03-22T04:13:42.371Z,8.89
2019-03-22T04:14:42.413Z,8.95
2019-03-22T04:15:42.434Z,8.94
2019-03-22T04:16:42.450Z,8.94
2019-03-22T04:17:42.481Z,8.80
2019-03-22T04:18:42.501Z,8.87
2019-03-22T04:19:42.528Z,8.83
2019-03-22T04:20:42.548Z,8.82
2019-03-22T04:21:42.576Z,8.76
2019-03-22T04:22:42.601Z,8.64
2019-03-22T04:23:42.628Z,8.74
2019-03-22T04:24:42.660Z,8.71
2019-03-22T04:25:42.680Z,8.69
2019-03-22T04:26:42.703Z,8.71
2019-03-22T04:27:42.733Z,8.67
2019-03-22T04:28:42.751Z,8.67
2019-03-22T04:29:42.775Z,8.67
2019-03-22T04:30:42.803Z,8.67
2019-03-22T04:31:42.828Z,8.64
2019-03-22T04:32:42.851Z,8.60
2019-03-22T04:33:42.876Z,8.60
2019-03-22T04:34:42.902Z,8.54
2019-03-22T04:35:42.935Z,8.53
2019-03-22T04:36:42.960Z,8.50
2019-03-22T04:37:42.986Z,8.54
2019-03-22T04:38:43.003Z,8.53
2019-03-22T04:40:40.612Z,8.53
2019-03-22T04:41:40.637Z,8.49
2019-03-22T04:42:40.669Z,8.46
2019-03-22T04:43:40.688Z,8.49
2019-03-22T04:44:40.717Z,8.47
2019-03-22T04:45:40.737Z,8.40
2019-03-22T04:46:40.771Z,8.40
2019-03-22T04:47:46.026Z,8.32
2019-03-22T04:48:40.813Z,8.39
2019-03-22T04:49:40.845Z,8.31
2019-03-22T04:50:40.868Z,8.29
2019-03-22T04:51:40.893Z,8.25
2019-03-22T04:52:40.928Z,8.25
2019-03-22T04:53:40.950Z,8.29
2019-03-22T04:54:40.973Z,8.26
2019-03-22T04:55:40.999Z,8.25
2019-03-22T04:56:41.020Z,8.24
2019-03-22T04:57:41.046Z,8.28
2019-03-22T04:58:41.065Z,8.29
2019-03-22T04:59:41.093Z,8.22
2019-03-22T05:00:41.115Z,8.22
2019-03-22T05:01:41.139Z,8.28
2019-03-22T05:02:43.792Z,8.22
2019-03-22T05:03:41.196Z,8.10
2019-03-22T05:04:41.237Z,8.14
2019-03-22T05:05:41.257Z,8.17
2019-03-22T05:06:41.271Z,8.16
2019-03-22T05:07:41.290Z,8.14
2019-03-22T05:08:41.317Z,8.29
2019-03-22T05:09:41.340Z,8.19
2019-03-22T05:10:41.379Z,8.19
2019-03-22T05:11:41.391Z,8.21
2019-03-22T05:12:41.416Z,8.22
2019-03-22T05:13:41.443Z,8.29
2019-03-22T05:14:41.475Z,8.21
2019-03-22T05:15:41.502Z,8.21
2019-03-22T05:16:41.515Z,8.14
2019-03-22T05:17:41.550Z,8.21
2019-03-22T05:18:43.906Z,8.26
2019-03-22T05:19:41.591Z,8.14
2019-03-22T05:20:41.620Z,8.22
2019-03-22T05:21:41.645Z,8.17
2019-03-22T05:22:41.670Z,8.25
2019-03-22T05:23:41.692Z,8.21
2019-03-22T05:24:41.720Z,8.14
2019-03-22T05:25:41.742Z,8.16
2019-03-22T05:26:41.768Z,8.03
2019-03-22T05:27:41.792Z,8.44
2019-03-22T05:28:41.818Z,8.89
2019-03-22T05:29:41.851Z,9.30
2019-03-22T05:30:41.870Z,9.38
2019-03-22T05:31:41.892Z,9.21
2019-03-22T05:32:41.919Z,9.14
2019-03-22T05:33:41.949Z,9.05
2019-03-22T05:34:41.968Z,9.03
2019-03-22T05:35:41.996Z,9.05
2019-03-22T05:36:42.027Z,9.19
2019-03-22T05:37:42.051Z,9.48
2019-03-22T05:38:42.068Z,9.74
2019-03-22T05:39:42.093Z,9.88
2019-03-22T05:40:42.122Z,9.96
2019-03-22T05:41:42.146Z,10.08
2019-03-22T05:42:42.171Z,10.23
2019-03-22T05:43:42.195Z,10.15
2019-03-22T05:44:42.224Z,9.96
2019-03-22T05:45:42.244Z,9.67
2019-03-22T05:46:42.273Z,9.55
2019-03-22T05:47:42.296Z,9.41
2019-03-22T05:48:42.322Z,9.26
2019-03-22T05:49:42.345Z,9.05
2019-03-22T05:50:42.373Z,8.95
2019-03-22T05:51:42.406Z,8.89
2019-03-22T05:52:42.422Z,8.83
2019-03-22T05:53:42.448Z,8.74
2019-03-22T05:54:42.472Z,8.71
2019-03-22T05:55:42.496Z,8.74
2019-03-22T05:56:42.520Z,8.65
2019-03-22T05:57:42.548Z,8.65
2019-03-22T05:58:42.572Z,8.69
2019-03-22T05:59:43.162Z,8.67
2019-03-22T06:00:42.622Z,8.72
2019-03-22T06:01:45.206Z,8.69
2019-03-22T06:02:42.673Z,8.62
2019-03-22T06:03:42.696Z,8.69
2019-03-22T06:04:42.721Z,8.58
2019-03-22T06:05:42.748Z,8.67
2019-03-22T06:06:42.773Z,8.68
2019-03-22T06:07:42.797Z,8.67
2019-03-22T06:08:42.831Z,8.74
2019-03-22T06:09:42.854Z,8.82
2019-03-22T06:10:42.880Z,8.72
2019-03-22T06:11:42.899Z,8.77
2019-03-22T06:12:42.924Z,8.85
2019-03-22T06:13:44.420Z,8.86
2019-03-22T06:14:42.973Z,8.76
2019-03-22T06:15:42.999Z,8.83
2019-03-22T06:16:43.025Z,8.87
2019-03-22T06:17:51.557Z,8.94
2019-03-22T06:18:43.074Z,8.89
2019-03-22T06:19:43.108Z,8.94
2019-03-22T06:20:43.125Z,8.92
2019-03-22T06:21:43.156Z,8.94
2019-03-22T06:22:43.176Z,8.74
2019-03-22T06:23:43.201Z,8.83
2019-03-22T06:24:43.232Z,8.77
2019-03-22T06:25:43.251Z,8.65
2019-03-22T06:26:43.279Z,8.64
2019-03-22T06:27:43.299Z,8.64
2019-03-22T06:28:43.328Z,8.67
2019-03-22T06:29:53.640Z,8.58
2019-03-22T06:30:43.376Z,8.64
2019-03-22T06:31:43.405Z,8.62
2019-03-22T06:32:43.426Z,8.58
2019-03-22T06:33:43.500Z,8.64
2019-03-22T06:34:43.475Z,8.67
2019-03-22T06:35:43.502Z,8.62
2019-03-22T06:36:43.535Z,8.62
2019-03-22T06:37:43.551Z,8.58
2019-03-22T06:38:43.584Z,8.50
2019-03-22T06:40:26.252Z,8.58
2019-03-22T06:41:26.288Z,8.67
2019-03-22T06:42:26.208Z,8.62
2019-03-22T06:43:26.225Z,8.72
2019-03-22T06:44:26.252Z,8.69
2019-03-22T06:45:26.281Z,8.69
2019-03-22T06:46:26.310Z,8.60
2019-03-22T06:47:26.328Z,8.67
2019-03-22T06:48:26.351Z,8.65
2019-03-22T06:49:26.385Z,8.68
2019-03-22T06:50:26.404Z,8.57
2019-03-22T06:51:26.429Z,8.61
2019-03-22T06:52:26.455Z,8.53
2019-03-22T06:53:26.483Z,8.46
2019-03-22T06:54:31.423Z,8.58
2019-03-22T06:55:26.536Z,8.62
2019-03-22T06:56:26.558Z,8.58
2019-03-22T06:57:26.584Z,8.60
2019-03-22T06:58:26.605Z,8.61
2019-03-22T06:59:26.631Z,8.62
2019-03-22T07:00:26.655Z,8.65
2019-03-22T07:01:26.680Z,8.68
2019-03-22T07:03:24.290Z,8.77
2019-03-22T07:04:24.318Z,8.86
2019-03-22T07:05:24.346Z,8.87
2019-03-22T07:06:24.365Z,8.97
2019-03-22T07:07:24.394Z,8.98
2019-03-22T07:08:24.417Z,9.04
2019-03-22T07:09:24.452Z,9.00
2019-03-22T07:10:24.469Z,9.14
2019-03-22T07:11:24.493Z,9.20
2019-03-22T07:12:24.521Z,9.23
2019-03-22T07:13:24.545Z,9.14
2019-03-22T07:14:24.573Z,9.16
2019-03-22T07:15:24.597Z,9.11
2019-03-22T07:16:24.623Z,9.03
2019-03-22T07:17:24.656Z,9.04
2019-03-22T07:18:24.680Z,9.09
2019-03-22T07:20:47.339Z,9.12
2019-03-22T07:21:47.365Z,9.17
2019-03-22T07:22:47.395Z,9.27
2019-03-22T07:23:47.419Z,9.26
2019-03-22T07:24:47.445Z,9.29
2019-03-22T07:25:47.467Z,9.35
2019-03-22T07:26:47.501Z,9.37
2019-03-22T07:27:47.521Z,9.42
2019-03-22T07:28:47.545Z,9.63
2019-03-22T07:29:47.580Z,9.60
2019-03-22T07:30:47.597Z,9.71
2019-03-22T07:32:35.183Z,9.95
2019-03-22T07:33:35.211Z,10.08
2019-03-22T07:34:35.239Z,10.31
2019-03-22T07:36:17.813Z,10.38
2019-03-22T07:37:17.835Z,10.55
2019-03-22T07:38:17.868Z,10.87
2019-03-22T07:39:17.889Z,11.20
2019-03-22T07:40:17.916Z,11.45
2019-03-22T07:41:17.938Z,11.64
2019-03-22T07:42:17.977Z,11.76
2019-03-22T07:43:17.998Z,11.89
2019-03-22T07:44:18.019Z,11.82
2019-03-22T07:45:18.049Z,11.63
2019-03-22T07:46:18.075Z,12.03
2019-03-22T07:48:00.648Z,12.13
2019-03-22T07:49:00.673Z,12.26
2019-03-22T07:50:00.707Z,12.48
2019-03-22T07:51:00.728Z,12.76
2019-03-22T07:52:00.757Z,13.29
2019-03-22T07:53:00.781Z,13.84
2019-03-22T07:54:03.472Z,14.33
2019-03-22T07:55:00.838Z,14.90
2019-03-22T07:56:00.864Z,15.49
2019-03-22T07:57:00.893Z,15.80
2019-03-22T07:58:00.921Z,15.84
2019-03-22T07:59:00.949Z,15.99
2019-03-22T08:00:00.981Z,15.84
2019-03-22T08:01:01.005Z,15.89
2019-03-22T08:02:01.040Z,16.08
2019-03-22T08:03:01.067Z,16.57
2019-03-22T08:04:01.092Z,16.69
2019-03-22T08:05:01.125Z,17.03
2019-03-22T08:06:01.152Z,17.35
2019-03-22T08:07:01.401Z,17.87
2019-03-22T08:08:01.212Z,17.18
2019-03-22T08:09:01.237Z,16.55
2019-03-22T08:10:01.324Z,16.47
2019-03-22T08:11:01.308Z,17.05
2019-03-22T08:12:01.333Z,17.42
2019-03-22T08:13:01.402Z,17.45
2019-03-22T08:14:01.394Z,17.73
2019-03-22T08:15:01.424Z,17.96
2019-03-22T08:16:01.453Z,17.98
2019-03-22T08:17:01.486Z,18.32
2019-03-22T08:18:01.518Z,18.56
2019-03-22T08:19:01.582Z,18.60
2019-03-22T08:20:01.577Z,18.89
2019-03-22T08:21:44.184Z,19.00
2019-03-22T08:22:44.206Z,18.75
2019-03-22T08:23:44.236Z,18.54
2019-03-22T08:24:44.265Z,18.50
2019-03-22T08:25:44.292Z,18.71
2019-03-22T08:26:44.322Z,18.38
2019-03-22T08:27:44.364Z,17.94
2019-03-22T08:28:44.429Z,17.80
2019-03-22T08:29:44.418Z,17.71
2019-03-22T08:30:44.475Z,17.95
2019-03-22T08:31:44.494Z,18.41
2019-03-22T08:32:44.522Z,18.47
2019-03-22T08:33:44.564Z,18.26
2019-03-22T08:34:47.545Z,18.51
2019-03-22T08:35:44.631Z,18.90
2019-03-22T08:36:44.666Z,19.20
2019-03-22T08:37:52.504Z,19.55
2019-03-22T08:38:44.730Z,19.90
2019-03-22T08:39:44.759Z,20.19
2019-03-22T08:40:44.798Z,20.44
2019-03-22T08:41:44.873Z,20.48
2019-03-22T08:42:44.892Z,20.93
2019-03-22T08:43:44.930Z,20.25
2019-03-22T08:44:44.983Z,20.27
2019-03-22T08:45:44.968Z,20.29
2019-03-22T08:46:45.210Z,20.71
2019-03-22T08:47:45.043Z,20.71
2019-03-22T08:48:45.071Z,20.81
2019-03-22T08:49:45.500Z,20.82
2019-03-22T08:50:45.177Z,21.00
2019-03-22T08:51:45.225Z,21.09
2019-03-22T08:52:45.315Z,20.90
2019-03-22T08:53:54.692Z,20.64
2019-03-22T08:54:45.288Z,20.19
2019-03-22T08:55:45.355Z,20.57
2019-03-22T08:56:45.367Z,20.96
2019-03-22T08:57:45.426Z,21.21
2019-03-22T08:58:45.480Z,21.61
2019-03-22T08:59:45.469Z,21.96
2019-03-22T09:00:56.855Z,22.29
2019-03-22T09:01:45.581Z,22.46
2019-03-22T09:02:45.598Z,21.76
2019-03-22T09:03:45.610Z,20.64
2019-03-22T09:04:45.648Z,20.32
2019-03-22T09:05:45.681Z,20.64
2019-03-22T09:06:45.724Z,20.94
2019-03-22T09:07:45.752Z,21.19
2019-03-22T09:08:47.898Z,21.52
2019-03-22T09:09:45.824Z,22.04
2019-03-22T09:10:45.911Z,21.49
2019-03-22T09:11:45.901Z,21.11
2019-03-22T09:12:46.004Z,20.79
2019-03-22T09:13:45.969Z,20.58
2019-03-22T09:14:46.011Z,20.64
2019-03-22T09:15:46.046Z,20.56
2019-03-22T09:16:46.079Z,20.40
2019-03-22T09:17:46.123Z,20.79
2019-03-22T09:18:46.192Z,21.45
2019-03-22T09:19:46.222Z,22.02
2019-03-22T09:20:46.283Z,22.27
2019-03-22T09:21:46.289Z,21.82
2019-03-22T09:22:46.326Z,21.90
2019-03-22T09:23:46.337Z,21.82
2019-03-22T09:24:46.371Z,21.89
2019-03-22T09:25:46.410Z,22.26
2019-03-22T09:26:47.980Z,22.23
2019-03-22T09:27:46.490Z,22.66
2019-03-22T09:42:15.079Z,24.44
2019-03-22T09:43:15.116Z,24.55
2019-03-22T09:44:15.169Z,24.75
2019-03-22T09:45:15.192Z,25.12
2019-03-22T09:46:15.364Z,25.22
2019-03-22T09:47:16.657Z,25.26
2019-03-22T09:48:15.315Z,24.80
2019-03-22T09:49:15.383Z,24.90
2019-03-22T09:50:15.396Z,24.33
2019-03-22T09:51:15.443Z,24.14
2019-03-22T09:52:15.459Z,24.69
2019-03-22T09:53:15.526Z,24.66
2019-03-22T09:54:15.534Z,25.01
2019-03-22T09:55:15.583Z,24.92
2019-03-22T09:56:15.640Z,25.11
2019-03-22T09:57:15.694Z,25.19
2019-03-22T09:58:15.706Z,25.09
2019-03-22T09:59:15.771Z,24.87
2019-03-22T10:00:15.778Z,25.01
2019-03-22T10:01:23.489Z,24.55
2019-03-22T10:02:15.836Z,24.39
2019-03-22T10:03:15.874Z,24.39
2019-03-22T10:04:15.919Z,25.05
2019-03-22T10:05:15.955Z,25.04
2019-03-22T10:06:16.003Z,25.07
2019-03-22T10:07:16.033Z,25.27
2019-03-22T10:08:16.071Z,25.49
2019-03-22T10:09:16.103Z,25.51
2019-03-22T10:10:16.170Z,25.44
2019-03-22T10:11:16.179Z,24.94
2019-03-22T10:12:16.282Z,24.74
2019-03-22T10:13:16.255Z,24.56
2019-03-22T10:14:16.345Z,24.44
2019-03-22T10:15:16.334Z,24.14
2019-03-22T10:16:16.397Z,23.92
2019-03-22T10:17:16.415Z,23.26
2019-03-22T10:18:16.459Z,22.57
2019-03-22T10:19:16.497Z,22.81
2019-03-22T10:20:16.543Z,23.04
2019-03-22T10:21:22.433Z,23.42
2019-03-22T10:22:16.609Z,23.75
2019-03-22T10:23:16.639Z,23.77
2019-03-22T10:24:16.681Z,23.84
2019-03-22T10:25:16.712Z,24.27
2019-03-22T10:26:16.753Z,24.45
2019-03-22T10:27:16.806Z,24.36
2019-03-22T10:28:16.841Z,24.55
2019-03-22T10:29:16.869Z,24.96
2019-03-22T10:30:16.903Z,25.22
2019-03-22T10:31:16.975Z,24.69
2019-03-22T10:32:16.981Z,24.80
2019-03-22T10:33:22.513Z,25.04
2019-03-22T10:34:17.058Z,25.27
2019-03-22T10:35:25.858Z,25.51
2019-03-22T10:36:17.138Z,25.54
2019-03-22T10:37:17.166Z,25.42
2019-03-22T10:38:30.645Z,25.45
2019-03-22T10:39:17.307Z,25.47
2019-03-22T10:40:17.283Z,25.44
2019-03-22T10:41:17.375Z,25.64
2019-03-22T10:42:17.360Z,25.81
2019-03-22T10:43:17.443Z,25.76
2019-03-22T10:44:17.439Z,26.01
2019-03-22T10:45:17.512Z,26.63
2019-03-22T10:46:17.516Z,26.69
2019-03-22T10:47:18.168Z,26.74
2019-03-22T10:48:17.595Z,26.44
2019-03-22T10:49:17.649Z,26.50
2019-03-22T10:50:17.703Z,26.45
2019-03-22T10:51:18.213Z,26.74
2019-03-22T10:52:17.746Z,26.44
2019-03-22T10:53:17.863Z,26.50
2019-03-22T10:54:17.857Z,25.74
2019-03-22T10:55:29.800Z,25.23
2019-03-22T10:56:17.901Z,24.94
2019-03-22T10:57:17.951Z,25.12
2019-03-22T10:58:21.245Z,25.02
2019-03-22T10:59:18.018Z,25.02
2019-03-22T11:00:18.142Z,25.20
2019-03-22T11:01:18.090Z,25.24
2019-03-22T11:02:18.129Z,25.34
2019-03-22T11:03:18.168Z,25.62
2019-03-22T11:04:18.214Z,25.93
2019-03-22T11:05:18.245Z,25.47
2019-03-22T11:06:25.900Z,25.54
2019-03-22T11:07:18.325Z,26.11
2019-03-22T11:08:18.363Z,26.19
2019-03-22T11:09:18.399Z,25.93
2019-03-22T11:10:18.446Z,25.71
2019-03-22T11:11:18.482Z,25.47
2019-03-22T11:12:18.524Z,25.74
2019-03-22T11:13:18.556Z,25.85
2019-03-22T11:14:18.595Z,25.85
2019-03-22T11:15:18.631Z,26.11
2019-03-22T11:16:18.684Z,26.09
2019-03-22T11:17:18.710Z,26.06
2019-03-22T11:18:18.749Z,25.44
2019-03-22T11:19:18.786Z,25.34
2019-03-22T11:20:18.827Z,25.81
2019-03-22T11:21:18.871Z,25.91
2019-03-22T11:22:18.905Z,26.04
2019-03-22T11:23:18.949Z,26.49
2019-03-22T11:24:18.982Z,26.53
2019-03-22T11:25:19.020Z,26.47
2019-03-22T11:26:19.063Z,26.44
2019-03-22T11:27:19.163Z,25.99
2019-03-22T11:28:19.136Z,26.42
2019-03-22T11:29:19.198Z,26.68
2019-03-22T11:30:19.213Z,26.59
2019-03-22T11:31:27.987Z,27.23
2019-03-22T11:32:19.357Z,26.76
2019-03-22T11:33:19.328Z,26.50
2019-03-22T11:34:19.364Z,26.57
2019-03-22T11:35:19.403Z,26.72
2019-03-22T11:36:19.443Z,26.44
2019-03-22T11:37:19.482Z,25.89
2019-03-22T11:38:19.527Z,25.99
2019-03-22T11:39:19.557Z,25.84
2019-03-22T11:40:19.607Z,25.48
2019-03-22T11:41:19.640Z,25.49
2019-03-22T11:42:19.682Z,25.48
2019-03-22T11:43:19.711Z,25.51
2019-03-22T11:44:19.752Z,26.09
2019-03-22T11:45:19.788Z,26.57
2019-03-22T11:46:19.926Z,26.71
2019-03-22T11:47:19.865Z,26.60
2019-03-22T11:48:19.904Z,26.89
2019-03-22T11:49:19.993Z,26.42
2019-03-22T11:50:19.980Z,26.53
2019-03-22T11:51:20.021Z,26.78
2019-03-22T11:52:20.059Z,26.72
2019-03-22T11:53:20.101Z,26.37
2019-03-22T11:54:20.133Z,25.56
2019-03-22T11:55:20.181Z,24.82
2019-03-22T11:56:20.213Z,25.26
2019-03-22T11:57:20.248Z,25.52
2019-03-22T11:58:20.289Z,26.24
2019-03-22T11:59:20.325Z,26.57
2019-03-22T12:00:20.365Z,26.87
2019-03-22T12:01:22.434Z,26.74
2019-03-22T12:02:22.503Z,26.44
2019-03-22T12:03:20.479Z,26.60
2019-03-22T12:04:20.519Z,26.82
2019-03-22T12:05:20.558Z,27.06
2019-03-22T12:06:20.604Z,27.13
2019-03-22T12:07:20.636Z,26.61
2019-03-22T12:08:20.680Z,26.42
2019-03-22T12:09:22.892Z,26.19
2019-03-22T12:10:20.749Z,26.03
2019-03-22T12:11:20.794Z,25.37
2019-03-22T12:12:20.824Z,25.29
2019-03-22T12:13:20.865Z,25.54
2019-03-22T12:14:20.901Z,25.93
2019-03-22T12:15:20.940Z,26.15
2019-03-22T12:16:20.982Z,25.66
2019-03-22T12:17:21.014Z,25.81
2019-03-22T12:18:21.052Z,26.11
2019-03-22T12:19:21.096Z,25.86
2019-03-22T12:20:21.130Z,26.31
2019-03-22T12:21:21.169Z,26.67
2019-03-22T12:22:21.205Z,26.99
2019-03-22T12:23:21.250Z,27.00
2019-03-22T12:24:21.284Z,27.13
2019-03-22T12:25:21.324Z,27.46
2019-03-22T12:26:21.359Z,27.21
2019-03-22T12:27:21.394Z,27.28
2019-03-22T12:28:21.435Z,27.49
2019-03-22T12:29:21.471Z,27.46
2019-03-22T12:30:21.508Z,27.16
2019-03-22T12:31:21.547Z,27.31
2019-03-22T12:32:21.590Z,26.74
2019-03-22T12:33:21.621Z,26.17
2019-03-22T12:34:21.658Z,25.93
2019-03-22T12:35:21.705Z,26.09
2019-03-22T12:36:21.737Z,26.34
2019-03-22T12:37:21.772Z,26.22
2019-03-22T12:38:21.811Z,26.19
2019-03-22T12:39:21.850Z,26.23
2019-03-22T12:40:21.889Z,26.07
2019-03-22T12:41:21.923Z,26.00
2019-03-22T12:42:21.962Z,25.94
2019-03-22T12:43:22.002Z,26.04
2019-03-22T12:44:22.037Z,26.39
2019-03-22T12:45:22.078Z,26.19
2019-03-22T12:46:22.112Z,26.17
2019-03-22T12:47:22.156Z,26.15
2019-03-22T12:48:22.196Z,26.27
2019-03-22T12:49:22.223Z,26.31
2019-03-22T12:50:22.261Z,26.59
2019-03-22T12:51:22.298Z,26.67
2019-03-22T12:52:22.337Z,26.90
2019-03-22T12:54:04.929Z,27.18
2019-03-22T12:55:04.967Z,27.38
2019-03-22T12:56:05.010Z,26.93
2019-03-22T12:57:05.042Z,26.72
2019-03-22T12:58:05.080Z,26.99
2019-03-22T12:59:05.120Z,27.16
2019-03-22T13:00:05.172Z,27.34
2019-03-22T13:01:05.191Z,26.79
2019-03-22T13:02:05.225Z,26.63
2019-03-22T13:03:05.265Z,26.42
2019-03-22T13:04:05.303Z,26.45
2019-03-22T13:05:05.472Z,26.30
2019-03-22T13:06:05.376Z,26.23
2019-03-22T13:07:05.413Z,26.37
2019-03-22T13:08:05.462Z,26.23
2019-03-22T13:09:05.492Z,26.67
2019-03-22T13:10:05.522Z,26.81
2019-03-22T13:11:05.564Z,26.30
2019-03-22T13:12:06.434Z,26.06
2019-03-22T13:13:05.633Z,26.27
2019-03-22T13:14:05.673Z,26.37
2019-03-22T13:15:05.705Z,26.68
2019-03-22T13:16:05.749Z,26.59
2019-03-22T13:17:05.783Z,26.69
2019-03-22T13:18:05.816Z,26.69
2019-03-22T13:19:05.857Z,26.97
2019-03-22T13:20:05.900Z,27.18
2019-03-22T13:21:05.923Z,27.33
2019-03-22T13:22:06.081Z,26.81
2019-03-22T13:23:05.997Z,26.81
2019-03-22T13:24:09.470Z,26.42
2019-03-22T13:25:06.068Z,26.19
2019-03-22T13:26:06.107Z,25.62
2019-03-22T13:27:06.142Z,24.74
2019-03-22T13:28:06.184Z,24.52